Wetterdaten: aktuell Montag, 01.06.2020 11:15
Datum Zeit Temp. A. Luft Gew. Boden Gew. Boden A. Feuchte A. Luftdruck Regen Wind Richtung Richtung Sonnenschein ET UV Solar Taupunkt Windchill Windben Empfang
01.06.2020 11:15 20.0 C 26.1 C 16.7 C 17.8 C 61 % 1021.5 hPa 0.0 l/m 7.3 km/h (2 Bft) NO 47 60 min 0.406 mm 5.4 UV-I 794 W/m 12.2 C 19.6 C 12.9 km/h (3 Bft) 98.33 %
01.06.2020 10:15 17.9 C 26.1 C 16.1 C 16.1 C 65 % 1021.9 hPa 0.0 l/m 10.4 km/h (2 Bft) O-NO 57 60 min 0.305 mm 3.9 UV-I 588 W/m 11.2 C 16.2 C 17.7 km/h (3 Bft) 96.67 %
01.06.2020 09:15 16.2 C 20.6 C 17.2 C 16.7 C 70 % 1022.3 hPa 0.0 l/m 10.9 km/h (2 Bft) O-NO 65 60 min 0.229 mm 2.4 UV-I 507 W/m 10.7 C 14.1 C 22.5 km/h (4 Bft) 95.73 %
01.06.2020 08:15 13.9 C 15.6 C 17.2 C 16.7 C 78 % 1021.9 hPa 0.0 l/m 8.3 km/h (2 Bft) O-NO 70 55 min 0.127 mm 1.2 UV-I 353 W/m 10.1 C 12.8 C 17.7 km/h (3 Bft) 95.73 %
01.06.2020 07:15 11.7 C 11.1 C 17.2 C 16.7 C 84 % 1022.0 hPa 0.0 l/m 7.5 km/h (2 Bft) NO 54 20 min 0.050 mm 0.5 UV-I 179 W/m 9.1 C 11.0 C 12.9 km/h (3 Bft) 97.25 %
01.06.2020 06:15 8.6 C 8.3 C 17.2 C 16.7 C 91 % 1022.0 hPa 0.0 l/m 0.2 km/h (0 Bft) O-NO 75 0 min 0.000 mm 0.0 UV-I 60 W/m 7.2 C 8.6 C 3.2 km/h (1 Bft) 97.44 %
01.06.2020 05:15 8.4 C 8.3 C 17.2 C 16.7 C 89 % 1021.8 hPa 0.0 l/m 0.0 km/h (0 Bft) O-NO 75 0 min 0.000 mm 0.0 UV-I 0 W/m 6.7 C 8.4 C 0.0 km/h (0 Bft) 96.58 %
01.06.2020 04:15 9.4 C 9.4 C 17.2 C 16.7 C 86 % 1021.8 hPa 0.0 l/m 0.0 km/h (0 Bft) O-NO 75 0 min 0.000 mm 0.0 UV-I 0 W/m 7.2 C 9.4 C 0.0 km/h (0 Bft) 99.15 %
01.06.2020 03:15 10.2 C 10.6 C 17.2 C 16.7 C 82 % 1021.9 hPa 0.0 l/m 0.0 km/h (0 Bft) O-NO 75 0 min 0.001 mm 0.0 UV-I 0 W/m 7.3 C 10.2 C 1.6 km/h (1 Bft) 100.00 %
01.06.2020 02:15 11.3 C 11.7 C 17.2 C 16.7 C 77 % 1022.3 hPa 0.0 l/m 3.9 km/h (1 Bft) O-NO 67 0 min 0.025 mm 0.0 UV-I 0 W/m 7.4 C 11.3 C 8.0 km/h (2 Bft) 100.00 %
01.06.2020 01:15 12.3 C 12.8 C 17.2 C 16.7 C 71 % 1022.4 hPa 0.0 l/m 3.1 km/h (1 Bft) O-NO 69 0 min 0.051 mm 0.0 UV-I 0 W/m 7.2 C 12.3 C 6.4 km/h (2 Bft) 100.00 %
01.06.2020 00:15 13.4 C 13.3 C 17.2 C 16.7 C 67 % 1022.6 hPa 0.0 l/m 5.7 km/h (1 Bft) O-NO 67 0 min 0.000 mm 0.0 UV-I 0 W/m 7.4 C 13.4 C 11.3 km/h (2 Bft) 99.15 %
31.05.2020 23:15 13.9 C 14.4 C 17.2 C 16.7 C 63 % 1022.5 hPa 0.0 l/m 5.6 km/h (1 Bft) O-NO 68 0 min 0.051 mm 0.0 UV-I 0 W/m 7.0 C 13.9 C 11.3 km/h (2 Bft) 97.44 %
31.05.2020 22:15 14.8 C 16.1 C 17.2 C 16.7 C 58 % 1022.3 hPa 0.0 l/m 6.8 km/h (2 Bft) O 89 0 min 0.051 mm 0.0 UV-I 0 W/m 6.6 C 14.6 C 11.3 km/h (2 Bft) 100.00 %
31.05.2020 21:15 16.0 C 19.4 C 17.2 C 16.7 C 55 % 1021.6 hPa 0.0 l/m 7.6 km/h (2 Bft) O-NO 72 0 min 0.051 mm 0.0 UV-I 0 W/m 7.0 C 15.4 C 19.3 km/h (3 Bft) 100.00 %
31.05.2020 20:15 16.8 C 23.3 C 17.2 C 16.7 C 51 % 1020.9 hPa 0.0 l/m 3.9 km/h (1 Bft) O-NO 74 15 min 0.127 mm 0.0 UV-I 49 W/m 6.6 C 16.8 C 6.4 km/h (2 Bft) 97.44 %
31.05.2020 19:15 18.3 C 28.3 C 17.2 C 16.7 C 46 % 1020.5 hPa 0.0 l/m 6.2 km/h (2 Bft) O-NO 65 60 min 0.228 mm 0.6 UV-I 254 W/m 6.5 C 18.3 C 11.3 km/h (2 Bft) 97.44 %
31.05.2020 18:15 18.8 C 27.8 C 17.2 C 16.7 C 44 % 1020.3 hPa 0.0 l/m 6.0 km/h (2 Bft) NO 46 60 min 0.330 mm 1.4 UV-I 411 W/m 6.3 C 18.8 C 11.3 km/h (2 Bft) 97.22 %
31.05.2020 17:15 18.6 C 26.7 C 17.2 C 16.7 C 47 % 1020.4 hPa 0.0 l/m 5.4 km/h (1 Bft) O-NO 69 55 min 0.381 mm 1.9 UV-I 139 W/m 7.1 C 18.6 C 11.3 km/h (2 Bft) 99.15 %
31.05.2020 16:15 19.3 C 28.9 C 17.2 C 16.7 C 44 % 1020.3 hPa 0.0 l/m 5.3 km/h (1 Bft) NO 42 60 min 0.432 mm 3.8 UV-I 755 W/m 6.7 C 19.3 C 17.7 km/h (3 Bft) 100.00 %
31.05.2020 15:15 18.7 C 31.1 C 17.2 C 16.7 C 41 % 1020.4 hPa 0.0 l/m 5.9 km/h (2 Bft) O-NO 62 60 min 0.432 mm 4.7 UV-I 702 W/m 5.2 C 18.7 C 12.9 km/h (3 Bft) 99.15 %
31.05.2020 14:15 17.2 C 28.3 C 17.2 C 16.7 C 48 % 1020.8 hPa 0.0 l/m 2.7 km/h (1 Bft) NO 34 60 min 0.356 mm 3.9 UV-I 316 W/m 6.1 C 17.2 C 9.7 km/h (2 Bft) 98.13 %
31.05.2020 13:15 16.2 C 27.2 C 17.2 C 16.7 C 49 % 1021.0 hPa 0.0 l/m 5.0 km/h (1 Bft) O-NO 69 60 min 0.381 mm 3.2 UV-I 328 W/m 5.5 C 16.2 C 12.9 km/h (3 Bft) 98.29 %
31.05.2020 12:15 16.7 C 28.9 C 17.2 C 16.7 C 50 % 1020.8 hPa 0.0 l/m 2.6 km/h (1 Bft) O 88 15 min 0.482 mm 5.8 UV-I 619 W/m 6.2 C 16.7 C 8.0 km/h (2 Bft) 99.15 %
31.05.2020 12:00 16.2 C 30.0 C 17.2 C 16.7 C 48 % 1021.0 hPa 0.0 l/m 7.6 km/h (2 Bft) O-NO 71 0 min 0.000 mm 3.7 UV-I 361 W/m 5.2 C 15.6 C 16.1 km/h (3 Bft) 100.00 %
_ Min-Zeit 05:50 05:15 09:50 09:50 15:15 17:50 - 03:15 - - - - - - 12:10 05:50 03:30 08:00
Minimum _ 8.0 C 8.3 C 15.6 C 15.0 C 41 % 1020.1 hPa - 0.0 km/h (0 Bft) - - - - - - 4.9 C 8.0 C 0.0 km/h (0 Bft) 94.87 %
_ Max-Zeit 11:15 15:20 12:00 11:05 05:40 00:05 12:00 09:00 - - 12:00 12:05 12:30 12:30 11:00 11:15 16:20 12:00
Maximum _ 20.0 C 31.7 C 17.2 C 17.8 C 91 % 1022.7 hPa 0.0 l/m 11.8 km/h
O-NO (2 Bft)
- - 5 min 0.482 mm 6.8 UV-I 1033 W/m 12.7 C 19.6 C 22.5 km/h
N-NO (4 Bft)
100.00 %
Durchschnitt _ 15.0 C 20.3 C 17.1 C 16.7 C 62 % 1021.5 hPa #0.0 l/m 5.2 km/h (1 Bft) O-NO - #4:15 h #1.219 mm 2.5 UV-I 351 W/m 7.4 C 14.7 C 11.3 km/h (2 Bft) 98.58 %